Time;durP1;ratioP1;P1;durP2;ratioP2;P2;SDS_P1;SDS_P2;PMS_P1;PMS_P2;Temp;Humidity;BMP_temperature;BMP_pressure;BME280_temperature;BME280_humidity;BME280_pressure;Samples;Min_cycle;Max_cycle;Signal;HPM_P1;HPM_P2
2021/07/20 00:01:35;;;;;;;11.13;6.97;;;;;;;;;;5109968;28;20387;-69
2021/07/20 00:04:01;;;;;;;10.90;6.78;;;;;;;;;;5110273;28;20024;-69
2021/07/20 00:06:27;;;;;;;15.95;7.10;;;;;;;;;;5110330;28;20388;-70
2021/07/20 00:08:53;;;;;;;11.25;7.10;;;;;;;;;;5109752;28;20099;-70
2021/07/20 00:11:20;;;;;;;10.63;6.15;;;;;;;;;;5110148;28;20054;-69
2021/07/20 00:13:46;;;;;;;10.93;6.57;;;;;;;;;;5110275;28;20032;-69
2021/07/20 00:16:13;;;;;;;10.45;7.40;;;;;;;;;;5109930;28;20531;-69
2021/07/20 00:18:39;;;;;;;12.63;8.38;;;;;;;;;;5109980;28;20066;-69
2021/07/20 00:21:07;;;;;;;11.52;7.53;;;;;;;;;;5110019;28;20028;-69
2021/07/20 00:23:34;;;;;;;11.40;7.65;;;;;;;;;;5109626;28;20364;-69
2021/07/20 00:28:01;;;;;;;12.45;7.45;;;;;;;;;;5110404;27;20400;-68
2021/07/20 00:30:28;;;;;;;12.82;7.55;;;;;;;;;;5110032;28;20051;-69
2021/07/20 00:32:54;;;;;;;11.77;7.45;;;;;;;;;;5110403;28;20416;-69
2021/07/20 00:35:20;;;;;;;12.15;7.07;;;;;;;;;;5110528;28;20084;-69
2021/07/20 00:39:11;;;;;;;10.77;7.18;;;;;;;;;;5110383;27;20442;-69
2021/07/20 00:41:37;;;;;;;17.50;8.57;;;;;;;;;;5110349;28;20027;-69
2021/07/20 00:44:04;;;;;;;10.43;7.65;;;;;;;;;;5109986;28;20020;-70
2021/07/20 00:46:59;;;;;;;12.00;6.90;;;;;;;;;;5110285;27;20396;-70
2021/07/20 00:49:25;;;;;;;12.15;7.50;;;;;;;;;;5110375;28;20055;-70
2021/07/20 00:51:51;;;;;;;14.68;7.55;;;;;;;;;;5109966;28;20472;-69
2021/07/20 00:54:18;;;;;;;10.98;7.60;;;;;;;;;;5109306;28;20468;-69
2021/07/20 00:56:44;;;;;;;9.88;7.38;;;;;;;;;;5108961;28;20024;-69
2021/07/20 00:59:12;;;;;;;10.30;7.50;;;;;;;;;;5109838;28;20027;-69
2021/07/20 01:01:38;;;;;;;10.52;7.82;;;;;;;;;;5110113;28;20028;-69
2021/07/20 01:04:04;;;;;;;11.65;7.13;;;;;;;;;;5109822;28;20073;-69
2021/07/20 01:06:31;;;;;;;11.75;8.23;;;;;;;;;;5109938;28;20487;-69
2021/07/20 01:09:02;;;;;;;13.38;7.75;;;;;;;;;;5110001;28;20161;-69
2021/07/20 01:11:30;;;;;;;10.50;7.07;;;;;;;;;;5109804;28;20020;-69
2021/07/20 01:13:56;;;;;;;10.95;8.25;;;;;;;;;;5108694;28;20036;-69
2021/07/20 01:16:24;;;;;;;11.50;7.93;;;;;;;;;;5109846;28;20027;-69
2021/07/20 01:20:57;;;;;;;10.63;7.40;;;;;;;;;;5110357;27;20466;-69
2021/07/20 01:23:35;;;;;;;10.48;7.22;;;;;;;;;;5110272;28;20077;-69
2021/07/20 01:26:01;;;;;;;11.05;6.90;;;;;;;;;;5109978;28;20020;-68
2021/07/20 01:28:29;;;;;;;10.10;7.13;;;;;;;;;;5110297;28;20103;-68
2021/07/20 01:30:59;;;;;;;11.95;7.38;;;;;;;;;;5110267;28;20476;-68
2021/07/20 01:33:26;;;;;;;11.50;7.78;;;;;;;;;;5110199;28;20270;-69
2021/07/20 01:35:53;;;;;;;10.40;7.82;;;;;;;;;;5110127;28;20095;-69
2021/07/20 01:38:20;;;;;;;11.07;7.55;;;;;;;;;;5110022;28;20016;-69
2021/07/20 01:40:48;;;;;;;11.02;7.60;;;;;;;;;;5108273;28;20032;-69
2021/07/20 01:43:14;;;;;;;11.18;7.95;;;;;;;;;;5110221;28;20536;-69
2021/07/20 01:46:44;;;;;;;9.20;6.32;;;;;;;;;;5109982;27;20848;-69
2021/07/20 01:49:11;;;;;;;11.13;7.45;;;;;;;;;;5110399;28;20065;-69
2021/07/20 01:51:38;;;;;;;11.98;8.07;;;;;;;;;;5110516;28;20019;-69
2021/07/20 01:54:05;;;;;;;13.40;8.38;;;;;;;;;;5109921;28;20479;-69
2021/07/20 01:57:01;;;;;;;14.77;7.72;;;;;;;;;;5110352;27;20454;-69
2021/07/20 01:59:27;;;;;;;11.55;7.78;;;;;;;;;;5110626;28;20376;-69
2021/07/20 02:02:06;;;;;;;12.88;7.63;;;;;;;;;;5109850;28;20024;-69
2021/07/20 02:10:26;;;;;;;11.60;8.20;;;;;;;;;;5110792;28;20038;-68
2021/07/20 02:12:55;;;;;;;11.98;7.82;;;;;;;;;;5110474;28;20024;-68
2021/07/20 02:15:22;;;;;;;10.77;7.82;;;;;;;;;;5109903;28;20104;-68
2021/07/20 02:19:01;;;;;;;10.65;6.90;;;;;;;;;;5069782;28;20485;-69
2021/07/20 02:21:27;;;;;;;13.77;8.13;;;;;;;;;;5069459;28;20082;-69
2021/07/20 02:25:38;;;;;;;11.43;7.80;;;;;;;;;;5110444;27;20404;-68
2021/07/20 02:30:14;;;;;;;11.50;7.43;;;;;;;;;;5110119;27;20397;-69
2021/07/20 02:32:41;;;;;;;11.75;7.60;;;;;;;;;;5110569;28;20033;-69
2021/07/20 02:35:09;;;;;;;11.48;7.75;;;;;;;;;;5110339;28;20048;-69
2021/07/20 02:37:38;;;;;;;10.18;7.53;;;;;;;;;;5109907;28;20024;-70
2021/07/20 02:40:05;;;;;;;11.25;7.57;;;;;;;;;;5110479;28;20016;-69
2021/07/20 02:42:33;;;;;;;9.48;7.03;;;;;;;;;;5109764;28;20020;-70
2021/07/20 02:45:00;;;;;;;10.40;6.97;;;;;;;;;;5110182;28;20024;-69
2021/07/20 02:48:23;;;;;;;10.65;7.38;;;;;;;;;;5110463;27;20746;-69
2021/07/20 02:50:50;;;;;;;11.27;7.90;;;;;;;;;;5110046;28;20479;-69
2021/07/20 02:53:17;;;;;;;11.10;6.80;;;;;;;;;;5110488;28;20106;-69
2021/07/20 02:55:44;;;;;;;11.30;6.63;;;;;;;;;;5110457;28;20031;-69
2021/07/20 02:58:10;;;;;;;9.30;6.50;;;;;;;;;;5109793;28;20502;-69
2021/07/20 03:00:37;;;;;;;9.15;6.55;;;;;;;;;;5108961;28;20052;-68
2021/07/20 03:04:23;;;;;;;10.40;6.78;;;;;;;;;;5109878;27;20316;-69
2021/07/20 03:08:09;;;;;;;14.70;7.03;;;;;;;;;;5110378;27;20907;-69
2021/07/20 03:10:36;;;;;;;10.52;6.68;;;;;;;;;;5109990;28;20115;-69
2021/07/20 03:13:08;;;;;;;10.85;7.22;;;;;;;;;;5110469;28;20430;-69
2021/07/20 03:15:34;;;;;;;10.52;8.13;;;;;;;;;;5110312;28;20016;-69
2021/07/20 03:18:02;;;;;;;9.88;6.47;;;;;;;;;;5109839;28;20093;-69
2021/07/20 03:20:54;;;;;;;10.65;7.60;;;;;;;;;;5110310;27;20443;-68
2021/07/20 03:27:15;;;;;;;12.32;7.93;;;;;;;;;;5069808;28;20419;-69
2021/07/20 03:29:42;;;;;;;12.82;7.43;;;;;;;;;;5069770;28;20025;-68
2021/07/20 03:34:15;;;;;;;11.23;7.85;;;;;;;;;;5131025;27;20816;-69
2021/07/20 03:36:41;;;;;;;17.00;8.10;;;;;;;;;;5092033;28;20127;-68
2021/07/20 03:39:07;;;;;;;12.30;8.35;;;;;;;;;;5109944;28;20020;-68
2021/07/20 03:41:34;;;;;;;11.23;7.47;;;;;;;;;;5110170;28;20066;-68
2021/07/20 03:44:56;;;;;;;11.60;8.52;;;;;;;;;;5110377;27;20393;-69
2021/07/20 03:47:23;;;;;;;11.93;8.30;;;;;;;;;;5109994;28;20507;-69
2021/07/20 03:49:49;;;;;;;11.30;7.97;;;;;;;;;;5110330;28;20365;-69
2021/07/20 03:52:15;;;;;;;12.77;7.95;;;;;;;;;;5110806;28;20037;-69
2021/07/20 03:54:42;;;;;;;10.98;8.07;;;;;;;;;;5109900;28;20032;-69
2021/07/20 03:57:09;;;;;;;11.95;7.60;;;;;;;;;;5110100;28;20019;-69
2021/07/20 03:59:37;;;;;;;12.15;8.18;;;;;;;;;;5110161;28;20053;-69
2021/07/20 04:02:04;;;;;;;12.98;7.20;;;;;;;;;;5110569;28;20042;-69
2021/07/20 04:04:33;;;;;;;10.15;7.05;;;;;;;;;;5110325;28;20123;-69
2021/07/20 04:07:01;;;;;;;10.50;7.80;;;;;;;;;;5109612;28;20020;-69
2021/07/20 04:09:27;;;;;;;14.40;7.35;;;;;;;;;;5109967;28;20062;-69
2021/07/20 04:11:54;;;;;;;12.50;7.88;;;;;;;;;;5110124;28;20027;-69
2021/07/20 04:14:21;;;;;;;13.05;7.57;;;;;;;;;;5109591;28;20027;-69
2021/07/20 04:16:47;;;;;;;11.70;7.70;;;;;;;;;;5109844;28;20031;-69
2021/07/20 04:19:15;;;;;;;13.98;8.25;;;;;;;;;;5108439;28;20036;-69
2021/07/20 04:21:42;;;;;;;11.40;8.48;;;;;;;;;;5109236;28;20022;-68
2021/07/20 04:24:08;;;;;;;10.70;7.57;;;;;;;;;;5109603;28;20157;-69
2021/07/20 04:26:34;;;;;;;11.73;7.97;;;;;;;;;;5109567;28;20054;-68
2021/07/20 04:29:01;;;;;;;12.45;8.52;;;;;;;;;;5109255;28;20020;-69
2021/07/20 04:31:27;;;;;;;14.90;9.25;;;;;;;;;;5109650;28;20375;-69
2021/07/20 04:33:54;;;;;;;12.02;8.15;;;;;;;;;;5109658;28;20368;-69
2021/07/20 04:36:50;;;;;;;14.02;9.10;;;;;;;;;;5110035;27;20458;-69
2021/07/20 04:40:35;;;;;;;13.23;8.55;;;;;;;;;;5110364;27;20393;-69
2021/07/20 04:43:50;;;;;;;12.18;8.20;;;;;;;;;;5069463;28;20391;-69
2021/07/20 04:46:18;;;;;;;12.27;7.45;;;;;;;;;;5069865;28;20485;-69
2021/07/20 04:48:45;;;;;;;10.25;7.40;;;;;;;;;;5069715;28;20020;-69
2021/07/20 04:51:12;;;;;;;11.85;7.20;;;;;;;;;;5069476;28;20024;-69
2021/07/20 04:53:39;;;;;;;12.80;8.55;;;;;;;;;;5069845;28;20028;-69
2021/07/20 04:56:06;;;;;;;14.07;8.93;;;;;;;;;;5069641;28;20025;-69
2021/07/20 04:58:33;;;;;;;11.10;7.78;;;;;;;;;;5064938;28;20024;-68
2021/07/20 05:02:01;;;;;;;11.23;8.23;;;;;;;;;;5110362;27;20466;-69
2021/07/20 05:04:28;;;;;;;10.27;7.75;;;;;;;;;;5110169;28;20123;-68
2021/07/20 05:06:54;;;;;;;11.88;8.52;;;;;;;;;;5110321;28;20031;-68
2021/07/20 05:09:21;;;;;;;12.65;8.57;;;;;;;;;;5119103;28;20426;-68
2021/07/20 05:11:47;;;;;;;12.35;8.10;;;;;;;;;;5130263;28;20023;-68
2021/07/20 05:14:13;;;;;;;11.30;8.85;;;;;;;;;;5130757;28;20030;-68
2021/07/20 05:17:12;;;;;;;13.07;9.57;;;;;;;;;;5110063;27;20377;-69
2021/07/20 05:20:09;;;;;;;13.73;10.07;;;;;;;;;;5110259;27;20385;-69
2021/07/20 05:22:36;;;;;;;19.20;12.15;;;;;;;;;;5108890;28;20053;-68
2021/07/20 05:25:04;;;;;;;15.52;11.70;;;;;;;;;;5128935;28;20027;-68
2021/07/20 05:27:37;;;;;;;18.45;12.18;;;;;;;;;;5130655;28;20076;-68
2021/07/20 05:30:04;;;;;;;17.13;10.85;;;;;;;;;;5130442;28;20028;-68
2021/07/20 05:32:31;;;;;;;15.30;11.27;;;;;;;;;;5130218;28;20031;-68
2021/07/20 05:34:57;;;;;;;15.75;10.77;;;;;;;;;;5130465;27;20020;-68
2021/07/20 05:37:23;;;;;;;15.85;11.80;;;;;;;;;;5127392;28;20666;-72
2021/07/20 05:39:50;;;;;;;23.95;12.32;;;;;;;;;;5129786;28;20147;-69
2021/07/20 05:42:20;;;;;;;19.85;12.77;;;;;;;;;;5128762;28;20024;-69
2021/07/20 05:44:47;;;;;;;18.75;12.45;;;;;;;;;;5130200;27;20031;-70
2021/07/20 05:47:15;;;;;;;16.58;12.02;;;;;;;;;;5129814;28;20061;-73
2021/07/20 05:49:42;;;;;;;16.30;11.60;;;;;;;;;;5130239;27;20467;-71
2021/07/20 05:52:21;;;;;;;17.27;12.75;;;;;;;;;;5110023;27;20392;-70
2021/07/20 05:54:48;;;;;;;17.52;11.95;;;;;;;;;;5110334;28;20020;-71
2021/07/20 05:58:01;;;;;;;18.20;12.70;;;;;;;;;;5110312;27;20505;-69
2021/07/20 06:00:29;;;;;;;19.60;12.60;;;;;;;;;;5108334;28;20085;-69
2021/07/20 06:02:56;;;;;;;16.27;10.60;;;;;;;;;;5110076;28;20028;-68
2021/07/20 06:05:27;;;;;;;18.15;11.82;;;;;;;;;;5107906;28;20099;-69
2021/07/20 06:07:54;;;;;;;16.75;10.98;;;;;;;;;;5108159;28;20015;-69
2021/07/20 06:10:20;;;;;;;16.85;11.27;;;;;;;;;;5108173;28;20019;-69
2021/07/20 06:12:47;;;;;;;17.10;11.32;;;;;;;;;;5103027;28;20016;-68
2021/07/20 06:15:13;;;;;;;17.67;11.80;;;;;;;;;;5108372;28;20542;-68
2021/07/20 06:17:40;;;;;;;19.20;12.70;;;;;;;;;;5108327;28;20042;-69
2021/07/20 06:20:08;;;;;;;16.52;11.85;;;;;;;;;;5108319;28;20016;-69
2021/07/20 06:22:36;;;;;;;19.98;13.05;;;;;;;;;;5107832;28;20479;-68
2021/07/20 06:25:04;;;;;;;19.88;12.20;;;;;;;;;;5109505;28;20099;-68
2021/07/20 06:27:30;;;;;;;18.30;11.88;;;;;;;;;;5109059;28;20023;-68
2021/07/20 06:29:57;;;;;;;17.48;11.88;;;;;;;;;;5107898;28;20020;-69
2021/07/20 06:32:24;;;;;;;17.45;12.00;;;;;;;;;;5109838;28;20365;-69
2021/07/20 06:34:50;;;;;;;16.55;11.05;;;;;;;;;;5109878;28;20474;-70
2021/07/20 06:37:17;;;;;;;16.63;11.20;;;;;;;;;;5109460;28;20039;-69
2021/07/20 06:39:44;;;;;;;16.25;11.90;;;;;;;;;;5109391;28;20016;-69
2021/07/20 06:42:11;;;;;;;17.33;11.82;;;;;;;;;;5108891;28;20027;-69
2021/07/20 06:44:38;;;;;;;16.05;11.18;;;;;;;;;;5108888;28;20016;-68
2021/07/20 06:47:04;;;;;;;22.58;12.05;;;;;;;;;;5108845;28;20073;-69
2021/07/20 06:49:31;;;;;;;16.35;10.80;;;;;;;;;;5107171;28;20418;-69
2021/07/20 06:51:57;;;;;;;16.30;11.48;;;;;;;;;;5108911;28;20103;-69
2021/07/20 06:54:23;;;;;;;14.40;10.90;;;;;;;;;;5109238;28;20027;-69
2021/07/20 06:56:52;;;;;;;16.58;10.98;;;;;;;;;;5108250;28;20051;-69
2021/07/20 06:59:18;;;;;;;16.38;11.32;;;;;;;;;;5109060;28;20413;-69
2021/07/20 07:01:45;;;;;;;13.57;10.32;;;;;;;;;;5111835;28;20020;-68
2021/07/20 07:06:24;;;;;;;17.40;11.70;;;;;;;;;;5069374;28;20395;-67
2021/07/20 07:08:51;;;;;;;16.60;11.30;;;;;;;;;;5069423;28;20041;-68
2021/07/20 07:13:17;;;;;;;19.27;12.73;;;;;;;;;;5110154;27;20855;-68
2021/07/20 07:15:44;;;;;;;20.08;11.52;;;;;;;;;;5108652;28;20039;-68
2021/07/20 07:18:11;;;;;;;17.75;11.85;;;;;;;;;;5109707;28;20020;-67
2021/07/20 07:20:38;;;;;;;17.15;12.13;;;;;;;;;;5103060;28;20455;-68
2021/07/20 07:23:05;;;;;;;17.98;12.10;;;;;;;;;;5109695;28;20058;-69
2021/07/20 07:25:31;;;;;;;18.80;12.50;;;;;;;;;;5108903;28;20371;-67
2021/07/20 07:27:58;;;;;;;18.17;12.68;;;;;;;;;;5108287;28;20035;-70
2021/07/20 07:30:25;;;;;;;22.05;13.43;;;;;;;;;;5109932;28;20144;-68
2021/07/20 07:32:52;;;;;;;19.80;13.93;;;;;;;;;;5107456;28;20038;-68
2021/07/20 07:35:18;;;;;;;23.52;14.70;;;;;;;;;;5089636;28;20042;-68
2021/07/20 07:37:45;;;;;;;21.33;14.00;;;;;;;;;;5089133;28;20028;-67
2021/07/20 07:40:12;;;;;;;21.20;15.75;;;;;;;;;;5089286;28;20059;-67
2021/07/20 07:42:39;;;;;;;21.20;13.93;;;;;;;;;;5089252;28;20499;-68
2021/07/20 07:45:08;;;;;;;19.38;13.52;;;;;;;;;;5088673;28;20030;-69
2021/07/20 07:47:36;;;;;;;20.52;12.63;;;;;;;;;;5089303;28;20511;-69
2021/07/20 07:50:04;;;;;;;19.08;13.90;;;;;;;;;;5088104;28;20020;-69
2021/07/20 07:52:31;;;;;;;17.38;12.00;;;;;;;;;;5088635;28;20032;-69
2021/07/20 07:54:57;;;;;;;19.15;13.52;;;;;;;;;;5089076;28;20379;-69
2021/07/20 07:57:23;;;;;;;20.98;12.38;;;;;;;;;;5087899;28;20020;-69
2021/07/20 07:59:54;;;;;;;19.95;12.55;;;;;;;;;;5088567;28;20021;-68
2021/07/20 08:02:23;;;;;;;17.98;11.65;;;;;;;;;;5096358;28;20047;-69
2021/07/20 08:04:50;;;;;;;18.15;11.32;;;;;;;;;;5108990;28;20100;-68
2021/07/20 08:07:18;;;;;;;16.10;10.77;;;;;;;;;;5108446;28;20101;-69
2021/07/20 08:09:46;;;;;;;17.88;12.48;;;;;;;;;;5108933;28;20032;-69
2021/07/20 08:12:13;;;;;;;16.30;10.23;;;;;;;;;;5108569;28;20069;-69
2021/07/20 08:14:39;;;;;;;17.67;10.10;;;;;;;;;;5107589;28;20027;-69
2021/07/20 08:17:06;;;;;;;15.90;10.73;;;;;;;;;;5107616;28;20107;-69
2021/07/20 08:19:35;;;;;;;15.88;10.88;;;;;;;;;;5108835;28;20024;-69
2021/07/20 08:22:04;;;;;;;17.25;11.77;;;;;;;;;;5108510;28;20024;-69
2021/07/20 08:24:31;;;;;;;14.32;9.65;;;;;;;;;;5095807;28;20016;-69
2021/07/20 08:27:00;;;;;;;13.70;8.68;;;;;;;;;;5093747;28;20106;-69
2021/07/20 08:29:31;;;;;;;12.60;8.52;;;;;;;;;;5094980;28;20032;-69
2021/07/20 08:31:59;;;;;;;16.88;9.02;;;;;;;;;;5095133;28;20040;-69
2021/07/20 08:34:27;;;;;;;12.82;8.13;;;;;;;;;;5093425;28;20020;-69
2021/07/20 08:36:54;;;;;;;13.85;8.32;;;;;;;;;;5095226;28;20028;-69
2021/07/20 08:39:22;;;;;;;14.25;8.25;;;;;;;;;;5092859;28;20027;-69
2021/07/20 08:42:00;;;;;;;14.57;9.05;;;;;;;;;;5094330;28;20062;-68
2021/07/20 08:44:26;;;;;;;15.15;8.38;;;;;;;;;;5093404;28;20046;-68
2021/07/20 08:47:10;;;;;;;12.52;7.25;;;;;;;;;;5094597;28;20531;-68
2021/07/20 08:49:55;;;;;;;13.07;7.80;;;;;;;;;;5094355;28;20028;-68
2021/07/20 08:52:24;;;;;;;12.98;7.78;;;;;;;;;;5093310;28;20059;-68
2021/07/20 08:55:02;;;;;;;11.48;6.60;;;;;;;;;;5093404;28;20103;-69
2021/07/20 08:57:32;;;;;;;10.65;6.13;;;;;;;;;;5094601;28;20032;-69
2021/07/20 09:00:02;;;;;;;12.75;7.78;;;;;;;;;;5093171;28;20028;-68
2021/07/20 09:02:36;;;;;;;12.57;7.75;;;;;;;;;;5093727;28;20126;-69
2021/07/20 09:05:15;;;;;;;11.07;6.78;;;;;;;;;;5094456;28;20476;-69
2021/07/20 09:07:43;;;;;;;12.25;7.07;;;;;;;;;;4156402;28;10000960;-68
2021/07/20 09:10:13;;;;;;;11.27;6.65;;;;;;;;;;5031124;28;20478;-69
2021/07/20 09:12:42;;;;;;;12.93;7.07;;;;;;;;;;5034531;28;20071;-67
2021/07/20 09:15:13;;;;;;;12.18;7.68;;;;;;;;;;5034826;28;20017;-69
2021/07/20 09:17:43;;;;;;;12.88;8.20;;;;;;;;;;5034244;28;20389;-69
2021/07/20 09:20:11;;;;;;;12.73;8.63;;;;;;;;;;5035029;28;20022;-68
2021/07/20 09:22:40;;;;;;;12.38;7.85;;;;;;;;;;5034611;28;20026;-68
2021/07/20 09:25:13;;;;;;;11.68;7.55;;;;;;;;;;5033938;28;20497;-68
2021/07/20 09:28:00;;;;;;;9.73;6.13;;;;;;;;;;5034815;28;20029;-69
2021/07/20 09:30:28;;;;;;;10.43;6.80;;;;;;;;;;5034504;28;20028;-69
2021/07/20 09:33:12;;;;;;;11.52;6.28;;;;;;;;;;5034091;28;20428;-69
2021/07/20 09:35:57;;;;;;;10.85;6.00;;;;;;;;;;5033364;28;20029;-68
2021/07/20 09:38:26;;;;;;;16.20;8.18;;;;;;;;;;5034234;28;20032;-68
2021/07/20 09:41:11;;;;;;;10.40;7.03;;;;;;;;;;5033739;28;20040;-68
2021/07/20 09:43:40;;;;;;;11.23;6.47;;;;;;;;;;5034563;28;20100;-68
2021/07/20 09:46:08;;;;;;;11.57;7.10;;;;;;;;;;5033843;28;20026;-69
2021/07/20 09:48:53;;;;;;;11.48;6.38;;;;;;;;;;5034065;28;20056;-69
2021/07/20 09:51:22;;;;;;;12.75;6.55;;;;;;;;;;5033604;28;20044;-68
2021/07/20 09:54:00;;;;;;;15.20;6.55;;;;;;;;;;5034329;28;20032;-68
2021/07/20 09:56:49;;;;;;;8.80;6.05;;;;;;;;;;5033739;28;20018;-68
2021/07/20 09:59:18;;;;;;;9.85;6.57;;;;;;;;;;5033670;28;20037;-68
2021/07/20 10:02:07;;;;;;;12.45;7.45;;;;;;;;;;5033403;28;20576;-68
2021/07/20 10:04:46;;;;;;;10.20;5.65;;;;;;;;;;5034220;28;20022;-68
2021/07/20 10:07:15;;;;;;;8.60;5.07;;;;;;;;;;5033514;28;20028;-68
2021/07/20 10:09:48;;;;;;;11.40;5.20;;;;;;;;;;5032963;28;20486;-68
2021/07/20 10:12:32;;;;;;;10.07;6.50;;;;;;;;;;5032679;28;20612;-68
2021/07/20 10:15:11;;;;;;;11.70;6.40;;;;;;;;;;5029477;28;20424;-67
2021/07/20 10:18:01;;;;;;;10.10;5.50;;;;;;;;;;5027252;28;20109;-67
2021/07/20 10:20:36;;;;;;;9.77;5.55;;;;;;;;;;5032940;28;20017;-67
2021/07/20 10:23:09;;;;;;;13.02;5.72;;;;;;;;;;5033088;28;20029;-68
2021/07/20 10:25:44;;;;;;;10.90;6.00;;;;;;;;;;5033409;28;20018;-67
2021/07/20 10:28:26;;;;;;;10.05;6.20;;;;;;;;;;5033414;28;20079;-68
2021/07/20 10:31:05;;;;;;;9.53;5.43;;;;;;;;;;5033329;28;20052;-68
2021/07/20 10:33:43;;;;;;;8.88;5.80;;;;;;;;;;5033079;28;20228;-68
2021/07/20 10:36:24;;;;;;;8.93;5.20;;;;;;;;;;5033508;28;20029;-68
2021/07/20 10:39:08;;;;;;;10.15;5.20;;;;;;;;;;5033521;28;20018;-67
2021/07/20 10:41:39;;;;;;;8.38;4.43;;;;;;;;;;5033032;28;20021;-68
2021/07/20 10:44:09;;;;;;;9.10;4.60;;;;;;;;;;5033250;28;20074;-68
2021/07/20 10:46:35;;;;;;;9.93;5.47;;;;;;;;;;5032955;28;20029;-68
2021/07/20 10:49:22;;;;;;;9.32;4.45;;;;;;;;;;5033011;28;20049;-67
2021/07/20 10:51:50;;;;;;;10.07;5.70;;;;;;;;;;5033236;28;20044;-68
2021/07/20 10:54:28;;;;;;;9.85;5.18;;;;;;;;;;5033141;28;20490;-68
2021/07/20 10:56:56;;;;;;;9.57;5.75;;;;;;;;;;5032931;28;20026;-68
2021/07/20 10:59:28;;;;;;;10.00;5.70;;;;;;;;;;5033141;28;20047;-68
2021/07/20 11:02:10;;;;;;;9.15;6.00;;;;;;;;;;5032066;28;20041;-68
2021/07/20 11:04:48;;;;;;;9.43;5.65;;;;;;;;;;5033506;28;20025;-68
2021/07/20 11:07:17;;;;;;;8.48;5.47;;;;;;;;;;5032940;28;20028;-68
2021/07/20 11:09:45;;;;;;;11.85;5.97;;;;;;;;;;5032574;28;20025;-68
2021/07/20 11:12:11;;;;;;;10.25;5.38;;;;;;;;;;5032324;28;20046;-68
2021/07/20 11:14:57;;;;;;;10.43;6.57;;;;;;;;;;5031105;28;20378;-67
2021/07/20 11:17:24;;;;;;;9.75;5.22;;;;;;;;;;5032701;28;20428;-67
2021/07/20 11:19:51;;;;;;;7.75;5.22;;;;;;;;;;5033039;28;20435;-66
2021/07/20 11:22:18;;;;;;;8.63;5.00;;;;;;;;;;5032808;28;20377;-67
2021/07/20 11:24:45;;;;;;;9.27;4.75;;;;;;;;;;5032304;28;20087;-67
2021/07/20 11:27:13;;;;;;;8.48;4.82;;;;;;;;;;5032914;28;20028;-68
2021/07/20 11:29:40;;;;;;;10.63;4.82;;;;;;;;;;5033134;28;20028;-67
2021/07/20 11:32:07;;;;;;;8.15;4.57;;;;;;;;;;5032607;28;20041;-67
2021/07/20 11:34:41;;;;;;;8.30;4.43;;;;;;;;;;5032841;28;20092;-67
2021/07/20 11:37:17;;;;;;;8.20;4.93;;;;;;;;;;5032577;28;20420;-67
2021/07/20 11:39:52;;;;;;;10.20;5.70;;;;;;;;;;5033036;28;20025;-67
2021/07/20 11:42:21;;;;;;;8.70;5.18;;;;;;;;;;5032884;28;20485;-68
2021/07/20 11:44:50;;;;;;;8.02;5.15;;;;;;;;;;5032350;28;20040;-68
2021/07/20 11:47:32;;;;;;;8.68;5.22;;;;;;;;;;5032592;28;20036;-68
2021/07/20 11:50:10;;;;;;;9.65;4.93;;;;;;;;;;5033008;28;20029;-68
2021/07/20 11:52:42;;;;;;;9.90;5.15;;;;;;;;;;5032046;28;20125;-68
2021/07/20 11:55:14;;;;;;;8.02;4.80;;;;;;;;;;5031424;28;20025;-69
2021/07/20 11:57:43;;;;;;;9.23;5.38;;;;;;;;;;5033093;28;20527;-68
2021/07/20 12:00:16;;;;;;;8.95;5.45;;;;;;;;;;5036149;28;20045;-68
2021/07/20 12:03:09;;;;;;;13.00;5.85;;;;;;;;;;5036387;28;20024;-68
2021/07/20 12:05:36;;;;;;;9.73;5.20;;;;;;;;;;5033721;28;20401;-68
2021/07/20 12:08:20;;;;;;;10.63;5.90;;;;;;;;;;5036208;28;20032;-68
2021/07/20 12:10:50;;;;;;;8.90;5.53;;;;;;;;;;5036268;28;20049;-68
2021/07/20 12:13:16;;;;;;;9.05;5.35;;;;;;;;;;5035436;28;20433;-69
2021/07/20 12:15:43;;;;;;;10.27;5.57;;;;;;;;;;5034272;28;20025;-68
2021/07/20 12:18:09;;;;;;;8.80;5.10;;;;;;;;;;5035196;28;20474;-68
2021/07/20 12:20:36;;;;;;;8.45;5.28;;;;;;;;;;5035759;28;20021;-67
2021/07/20 12:23:04;;;;;;;10.70;6.03;;;;;;;;;;5035826;28;20105;-68
2021/07/20 12:25:31;;;;;;;9.80;6.65;;;;;;;;;;5034611;28;20086;-68
2021/07/20 12:27:59;;;;;;;11.68;7.32;;;;;;;;;;5034287;28;20030;-68
2021/07/20 12:30:26;;;;;;;10.95;6.95;;;;;;;;;;5035982;28;20026;-68
2021/07/20 12:32:53;;;;;;;10.60;6.70;;;;;;;;;;5033599;28;20034;-68
2021/07/20 12:35:20;;;;;;;10.80;6.72;;;;;;;;;;5035077;28;20021;-68
2021/07/20 12:38:05;;;;;;;10.00;6.63;;;;;;;;;;5035378;28;20029;-68
2021/07/20 12:40:33;;;;;;;12.48;6.57;;;;;;;;;;5035141;28;20026;-68
2021/07/20 12:43:09;;;;;;;11.35;6.43;;;;;;;;;;5035661;28;20478;-68
2021/07/20 12:45:35;;;;;;;10.52;6.30;;;;;;;;;;5035581;28;20478;-68
2021/07/20 12:48:03;;;;;;;9.52;5.97;;;;;;;;;;5033789;28;20131;-68
2021/07/20 12:50:29;;;;;;;9.57;5.68;;;;;;;;;;5034228;28;20025;-66
2021/07/20 12:52:55;;;;;;;12.18;5.70;;;;;;;;;;5035155;28;20041;-67
2021/07/20 12:55:23;;;;;;;11.65;7.35;;;;;;;;;;5035141;28;20202;-67
2021/07/20 12:57:52;;;;;;;10.93;6.47;;;;;;;;;;5035531;28;20363;-68
2021/07/20 13:00:23;;;;;;;12.00;6.40;;;;;;;;;;5033959;28;20386;-68
2021/07/20 13:02:50;;;;;;;11.60;6.30;;;;;;;;;;5035191;28;20080;-67
2021/07/20 13:05:16;;;;;;;11.30;6.30;;;;;;;;;;5035172;28;20493;-68
2021/07/20 13:07:44;;;;;;;10.40;6.22;;;;;;;;;;5035177;28;20029;-68
2021/07/20 13:10:10;;;;;;;9.68;6.20;;;;;;;;;;5034680;28;20040;-67
2021/07/20 13:12:45;;;;;;;9.63;5.60;;;;;;;;;;5033507;28;20049;-67
2021/07/20 13:15:17;;;;;;;9.85;6.07;;;;;;;;;;5033578;28;20017;-68
2021/07/20 13:17:43;;;;;;;;;;;;;;;;;;5035109;28;20021;-68
2021/07/20 13:20:09;;;;;;;9.15;5.57;;;;;;;;;;5035218;28;20281;-67
2021/07/20 13:22:39;;;;;;;12.15;6.05;;;;;;;;;;5034683;28;20025;-67
2021/07/20 13:25:07;;;;;;;8.98;5.35;;;;;;;;;;5034906;28;20098;-67
2021/07/20 13:27:36;;;;;;;8.30;5.30;;;;;;;;;;5034999;28;20485;-67
2021/07/20 13:30:03;;;;;;;8.88;5.25;;;;;;;;;;5034573;28;20033;-67
2021/07/20 13:32:30;;;;;;;8.40;5.40;;;;;;;;;;5034692;28;20040;-68
2021/07/20 13:34:56;;;;;;;10.68;5.50;;;;;;;;;;5033388;28;20032;-68
2021/07/20 13:37:22;;;;;;;8.52;6.22;;;;;;;;;;5034600;28;20474;-68
2021/07/20 13:39:49;;;;;;;10.27;4.93;;;;;;;;;;5034676;28;20032;-68
2021/07/20 13:42:18;;;;;;;7.80;4.80;;;;;;;;;;5033413;28;20029;-68
2021/07/20 13:44:45;;;;;;;8.77;4.95;;;;;;;;;;5034347;28;20018;-68
2021/07/20 13:47:11;;;;;;;10.00;5.28;;;;;;;;;;5034573;28;20029;-68
2021/07/20 13:49:38;;;;;;;8.27;5.00;;;;;;;;;;5034555;28;20385;-68
2021/07/20 13:52:04;;;;;;;7.70;4.80;;;;;;;;;;5033958;28;20021;-68
2021/07/20 13:54:33;;;;;;;8.68;5.60;;;;;;;;;;5034377;28;20026;-67
2021/07/20 13:57:00;;;;;;;8.55;5.30;;;;;;;;;;5034284;28;20532;-66
2021/07/20 13:59:30;;;;;;;8.88;5.20;;;;;;;;;;5033976;28;20056;-67
2021/07/20 14:01:56;;;;;;;10.63;5.60;;;;;;;;;;5034283;28;20510;-67
2021/07/20 14:04:23;;;;;;;8.63;5.07;;;;;;;;;;5033087;28;20064;-68
2021/07/20 14:06:53;;;;;;;7.10;4.50;;;;;;;;;;5034176;28;20021;-67
2021/07/20 14:09:19;;;;;;;8.77;5.10;;;;;;;;;;5034265;28;20048;-68
2021/07/20 14:11:46;;;;;;;8.93;4.93;;;;;;;;;;5033342;28;20119;-68
2021/07/20 14:14:13;;;;;;;8.48;5.25;;;;;;;;;;5034035;28;20017;-67
2021/07/20 14:16:40;;;;;;;8.18;4.97;;;;;;;;;;5033810;28;20017;-66
2021/07/20 14:19:09;;;;;;;9.07;5.38;;;;;;;;;;5033693;28;20036;-67
2021/07/20 14:21:36;;;;;;;8.65;5.40;;;;;;;;;;5033421;28;20025;-66
2021/07/20 14:24:05;;;;;;;9.65;5.45;;;;;;;;;;5033730;28;20033;-66
2021/07/20 14:26:32;;;;;;;11.55;5.13;;;;;;;;;;5033421;28;20057;-66
2021/07/20 14:28:59;;;;;;;7.55;4.70;;;;;;;;;;5033872;28;20064;-67
2021/07/20 14:31:34;;;;;;;11.02;5.07;;;;;;;;;;5033580;28;20033;-66
2021/07/20 14:34:02;;;;;;;8.85;5.25;;;;;;;;;;5033351;28;20052;-66
2021/07/20 14:36:35;;;;;;;8.35;5.25;;;;;;;;;;5033579;28;20021;-67
2021/07/20 14:39:02;;;;;;;12.20;5.05;;;;;;;;;;5033622;28;20029;-67
2021/07/20 14:41:28;;;;;;;16.52;6.00;;;;;;;;;;5031839;28;20027;-68
2021/07/20 14:43:59;;;;;;;8.82;5.35;;;;;;;;;;5033483;28;20482;-68
2021/07/20 14:46:39;;;;;;;9.45;5.03;;;;;;;;;;5033592;28;20339;-66
2021/07/20 14:49:05;;;;;;;9.05;5.43;;;;;;;;;;5033544;28;20025;-67
2021/07/20 14:51:35;;;;;;;7.68;4.90;;;;;;;;;;5031978;28;20033;-67
2021/07/20 14:54:01;;;;;;;9.90;5.07;;;;;;;;;;5032840;28;20075;-67
2021/07/20 14:56:27;;;;;;;8.77;5.47;;;;;;;;;;5031593;28;20385;-67
2021/07/20 14:58:53;;;;;;;10.80;5.75;;;;;;;;;;5033280;28;20022;-66
2021/07/20 15:01:24;;;;;;;8.80;5.55;;;;;;;;;;5032875;28;20382;-67
2021/07/20 15:03:54;;;;;;;14.90;5.82;;;;;;;;;;5033412;28;20025;-67
2021/07/20 15:06:20;;;;;;;7.72;5.28;;;;;;;;;;5033331;28;20095;-67
2021/07/20 15:08:46;;;;;;;10.05;5.93;;;;;;;;;;5032777;28;20029;-67
2021/07/20 15:11:27;;;;;;;11.45;5.63;;;;;;;;;;5032697;28;20038;-67
2021/07/20 15:14:02;;;;;;;9.38;6.28;;;;;;;;;;5031854;28;20028;-67
2021/07/20 15:16:42;;;;;;;9.70;5.95;;;;;;;;;;5031356;28;20025;-67
2021/07/20 15:19:13;;;;;;;10.73;5.63;;;;;;;;;;5033100;28;20092;-67
2021/07/20 15:21:47;;;;;;;10.25;6.03;;;;;;;;;;5033158;28;20033;-67